createdAt,value
2022-11-26T00:01:05.936Z,160.70
2022-11-26T00:03:39.076Z,170.00
2022-11-26T00:06:26.652Z,134.80
2022-11-26T00:09:00.923Z,158.90
2022-11-26T00:11:32.924Z,179.50
2022-11-26T00:14:06.587Z,174.40
2022-11-26T00:16:38.515Z,193.10
2022-11-26T00:19:12.755Z,162.00
2022-11-26T00:21:48.692Z,160.40
2022-11-26T00:24:32.293Z,150.30
2022-11-26T00:27:05.741Z,155.90
2022-11-26T00:29:38.489Z,153.70
2022-11-26T00:32:13.199Z,158.10
2022-11-26T00:34:46.949Z,149.40
2022-11-26T00:37:23.867Z,142.40
2022-11-26T00:39:57.324Z,145.60
2022-11-26T00:42:29.821Z,125.10
2022-11-26T00:45:05.115Z,142.00
2022-11-26T00:47:38.574Z,129.20
2022-11-26T00:50:17.507Z,134.70
2022-11-26T00:52:50.896Z,126.60
2022-11-26T00:55:28.070Z,118.90
2022-11-26T00:58:03.420Z,122.20
2022-11-26T01:00:36.730Z,115.90
2022-11-26T01:03:09.851Z,110.70
2022-11-26T01:05:45.498Z,109.80
2022-11-26T01:08:25.301Z,115.40
2022-11-26T01:10:59.769Z,112.40
2022-11-26T01:13:33.324Z,112.50
2022-11-26T01:16:20.682Z,116.70
2022-11-26T01:18:54.614Z,115.70
2022-11-26T01:21:28.807Z,116.00
2022-11-26T01:24:01.570Z,128.80
2022-11-26T01:26:38.581Z,116.60
2022-11-26T01:29:14.632Z,109.90
2022-11-26T01:31:50.211Z,111.40
2022-11-26T01:34:22.774Z,111.70
2022-11-26T01:36:54.700Z,115.30
2022-11-26T01:39:28.866Z,111.40
2022-11-26T01:42:08.562Z,109.10
2022-11-26T01:44:41.128Z,109.90
2022-11-26T01:47:24.074Z,107.90
2022-11-26T01:50:45.578Z,106.60
2022-11-26T01:53:25.391Z,110.70
2022-11-26T01:56:04.937Z,110.60
2022-11-26T01:58:40.966Z,110.00
2022-11-26T02:01:14.062Z,112.30
2022-11-26T02:03:57.281Z,114.60
2022-11-26T02:06:33.452Z,112.20
2022-11-26T02:09:07.466Z,109.80
2022-11-26T02:11:40.394Z,105.40
2022-11-26T02:14:15.622Z,104.90
2022-11-26T02:17:15.151Z,103.00
2022-11-26T02:20:14.719Z,102.80
2022-11-26T02:23:07.249Z,97.00
2022-11-26T02:26:17.159Z,99.00
2022-11-26T02:29:03.081Z,100.90
2022-11-26T02:31:39.856Z,97.60
2022-11-26T02:34:16.657Z,98.40
2022-11-26T02:36:51.186Z,96.80
2022-11-26T02:39:28.406Z,99.30
2022-11-26T02:42:04.645Z,96.40
2022-11-26T02:44:43.804Z,99.00
2022-11-26T02:47:18.393Z,95.70
2022-11-26T02:49:55.766Z,92.70
2022-11-26T02:52:28.417Z,91.00
2022-11-26T02:55:01.342Z,92.00
2022-11-26T02:57:37.512Z,87.80
2022-11-26T03:00:13.088Z,87.70
2022-11-26T03:02:49.990Z,88.80
2022-11-26T03:05:23.854Z,90.60
2022-11-26T03:07:57.403Z,89.80
2022-11-26T03:10:31.681Z,90.80
2022-11-26T03:13:07.004Z,93.50
2022-11-26T03:15:38.859Z,93.70
2022-11-26T03:18:14.369Z,92.70
2022-11-26T03:20:52.556Z,92.20
2022-11-26T03:23:26.074Z,85.70
2022-11-26T03:25:59.418Z,89.30
2022-11-26T03:28:33.803Z,85.00
2022-11-26T03:31:07.418Z,83.40
2022-11-26T03:33:40.870Z,85.10
2022-11-26T03:36:14.996Z,84.20
2022-11-26T03:38:49.549Z,86.80
2022-11-26T03:41:23.449Z,85.40
2022-11-26T03:43:57.347Z,85.20
2022-11-26T03:46:31.061Z,86.30
2022-11-26T03:49:04.782Z,86.40
2022-11-26T03:51:37.108Z,88.30
2022-11-26T03:54:11.542Z,88.70
2022-11-26T03:56:43.315Z,87.90
2022-11-26T03:59:17.313Z,99.20
2022-11-26T04:01:51.162Z,96.60
2022-11-26T04:04:24.622Z,95.20
2022-11-26T04:06:59.400Z,88.10
2022-11-26T04:09:33.839Z,87.60
2022-11-26T04:12:10.688Z,85.80
2022-11-26T04:14:47.451Z,85.70
2022-11-26T04:17:20.322Z,87.70
2022-11-26T04:19:55.238Z,88.30
2022-11-26T04:22:27.309Z,87.00
2022-11-26T04:25:00.579Z,88.60
2022-11-26T04:27:34.745Z,92.80
2022-11-26T04:30:09.557Z,207.60
2022-11-26T04:32:43.597Z,286.90
2022-11-26T04:35:17.685Z,190.20
2022-11-26T04:37:50.264Z,137.10
2022-11-26T04:40:23.964Z,146.20
2022-11-26T04:42:55.802Z,158.40
2022-11-26T04:45:28.191Z,145.50
2022-11-26T04:48:05.649Z,199.20
2022-11-26T04:50:37.752Z,183.40
2022-11-26T04:53:10.564Z,183.50
2022-11-26T04:55:43.740Z,169.60
2022-11-26T04:58:16.874Z,150.10
2022-11-26T05:00:52.683Z,155.10
2022-11-26T05:03:26.503Z,177.10
2022-11-26T05:05:59.068Z,178.40
2022-11-26T05:08:32.666Z,170.20
2022-11-26T05:11:05.248Z,163.20
2022-11-26T05:13:39.023Z,153.50
2022-11-26T05:16:13.225Z,148.10
2022-11-26T05:18:45.624Z,138.60
2022-11-26T05:21:19.345Z,138.00
2022-11-26T05:23:51.671Z,140.60
2022-11-26T05:26:26.428Z,132.80
2022-11-26T05:28:58.916Z,122.40
2022-11-26T05:31:33.161Z,120.40
2022-11-26T05:34:09.983Z,115.40
2022-11-26T05:36:41.927Z,113.80
2022-11-26T05:39:14.560Z,121.20
2022-11-26T05:41:47.556Z,116.90
2022-11-26T05:44:21.138Z,116.90
2022-11-26T05:46:55.584Z,115.70
2022-11-26T05:49:28.765Z,111.00
2022-11-26T05:52:03.851Z,106.30
2022-11-26T05:54:36.672Z,104.30
2022-11-26T05:57:11.017Z,101.40
2022-11-26T05:59:44.562Z,104.20
2022-11-26T06:02:17.042Z,100.50
2022-11-26T06:04:52.557Z,103.80
2022-11-26T06:07:26.866Z,101.30
2022-11-26T06:10:00.553Z,103.70
2022-11-26T06:12:33.752Z,105.50
2022-11-26T06:15:08.295Z,124.80
2022-11-26T06:17:43.092Z,129.90
2022-11-26T06:20:16.388Z,110.40
2022-11-26T06:22:49.689Z,104.30
2022-11-26T06:25:22.902Z,102.40
2022-11-26T06:27:56.830Z,103.60
2022-11-26T06:30:29.322Z,142.50
2022-11-26T06:33:05.242Z,137.30
2022-11-26T06:35:38.971Z,102.20
2022-11-26T06:38:10.990Z,96.30
2022-11-26T06:40:44.652Z,95.30
2022-11-26T06:43:17.288Z,95.40
2022-11-26T06:45:49.264Z,96.10
2022-11-26T06:48:22.448Z,94.70
2022-11-26T06:50:56.245Z,102.20
2022-11-26T06:53:29.678Z,100.80
2022-11-26T06:56:05.224Z,103.60
2022-11-26T06:58:38.746Z,101.70
2022-11-26T07:01:15.983Z,104.80
2022-11-26T07:03:50.306Z,140.80
2022-11-26T07:06:25.103Z,120.70
2022-11-26T07:09:04.513Z,117.70
2022-11-26T07:11:39.085Z,113.20
2022-11-26T07:14:11.465Z,125.70
2022-11-26T07:16:43.476Z,123.70
2022-11-26T07:19:17.824Z,129.40
2022-11-26T07:21:51.316Z,126.10
2022-11-26T07:24:23.550Z,109.90
2022-11-26T07:26:58.223Z,109.20
2022-11-26T07:29:30.370Z,109.70
2022-11-26T07:32:04.551Z,107.20
2022-11-26T07:34:37.589Z,93.80
2022-11-26T07:37:11.530Z,93.40
2022-11-26T07:39:44.674Z,100.30
2022-11-26T07:42:18.012Z,99.30
2022-11-26T07:44:53.105Z,106.40
2022-11-26T07:47:25.979Z,126.60
2022-11-26T07:49:57.907Z,123.50
2022-11-26T07:52:30.715Z,121.50
2022-11-26T07:55:12.475Z,124.30
2022-11-26T07:57:46.965Z,122.30
2022-11-26T08:00:21.757Z,117.30
2022-11-26T08:02:53.860Z,118.60
2022-11-26T08:05:27.874Z,113.50
2022-11-26T08:08:01.490Z,125.20
2022-11-26T08:10:34.304Z,146.40
2022-11-26T08:13:07.870Z,169.70
2022-11-26T08:15:41.886Z,143.40
2022-11-26T08:18:13.894Z,141.00
2022-11-26T08:20:47.158Z,116.20
2022-11-26T08:23:21.857Z,112.20
2022-11-26T08:26:20.452Z,107.60
2022-11-26T08:28:48.658Z,103.40
2022-11-26T08:31:22.401Z,98.40
2022-11-26T08:33:56.722Z,95.90
2022-11-26T08:36:30.255Z,95.40
2022-11-26T08:39:04.252Z,94.40
2022-11-26T08:41:36.941Z,92.60
2022-11-26T08:44:10.511Z,83.70
2022-11-26T08:46:44.274Z,84.30
2022-11-26T08:49:20.202Z,81.40
2022-11-26T08:51:54.145Z,80.20
2022-11-26T08:54:28.028Z,81.00
2022-11-26T08:57:03.111Z,81.80
2022-11-26T08:59:35.427Z,82.50
2022-11-26T09:02:18.460Z,84.50
2022-11-26T09:04:55.360Z,86.90
2022-11-26T09:07:29.318Z,90.80
2022-11-26T09:10:03.373Z,91.80
2022-11-26T09:12:38.077Z,93.70
2022-11-26T09:15:12.848Z,95.90
2022-11-26T09:17:45.722Z,97.80
2022-11-26T09:20:19.800Z,99.70
2022-11-26T09:22:52.985Z,97.10
2022-11-26T09:25:27.354Z,97.70
2022-11-26T09:28:00.173Z,97.00
2022-11-26T09:30:35.278Z,99.60
2022-11-26T09:33:09.876Z,102.80
2022-11-26T09:35:42.512Z,109.50
2022-11-26T09:38:16.559Z,122.40
2022-11-26T09:40:51.935Z,107.00
2022-11-26T09:43:31.312Z,107.40
2022-11-26T09:46:10.351Z,107.40
2022-11-26T09:48:44.485Z,103.70
2022-11-26T09:51:21.005Z,103.00
2022-11-26T09:53:55.102Z,103.20
2022-11-26T09:56:33.013Z,106.00
2022-11-26T09:59:08.582Z,107.50
2022-11-26T10:01:43.166Z,106.80
2022-11-26T10:04:24.006Z,107.50
2022-11-26T10:07:01.489Z,114.70
2022-11-26T10:09:47.480Z,136.30
2022-11-26T10:12:29.956Z,135.20
2022-11-26T10:15:08.412Z,124.00
2022-11-26T10:17:46.668Z,134.60
2022-11-26T10:20:47.049Z,131.20
2022-11-26T10:23:26.588Z,128.40
2022-11-26T10:26:08.068Z,125.20
2022-11-26T10:28:47.186Z,138.20
2022-11-26T10:31:23.685Z,152.20
2022-11-26T10:34:04.656Z,135.50
2022-11-26T10:36:40.337Z,121.60
2022-11-26T10:39:19.287Z,141.60
2022-11-26T10:41:52.227Z,110.30
2022-11-26T10:44:41.223Z,131.90
2022-11-26T10:47:26.370Z,109.50
2022-11-26T10:50:45.422Z,94.50
2022-11-26T10:53:16.847Z,71.10
2022-11-26T10:55:50.084Z,74.20
2022-11-26T10:58:24.526Z,66.50
2022-11-26T11:01:07.781Z,59.80
2022-11-26T11:04:08.592Z,57.50
2022-11-26T11:06:44.023Z,53.90
2022-11-26T11:09:36.585Z,48.60
2022-11-26T11:12:32.192Z,59.40
2022-11-26T11:15:24.912Z,60.00
2022-11-26T11:18:03.882Z,58.50
2022-11-26T11:20:39.227Z,58.10
2022-11-26T11:23:39.998Z,59.10
2022-11-26T11:26:21.790Z,61.30
2022-11-26T11:28:58.285Z,64.00
2022-11-26T11:31:30.233Z,64.40
2022-11-26T11:34:19.941Z,69.70
2022-11-26T11:37:10.530Z,68.70
2022-11-26T11:39:47.019Z,66.20
2022-11-26T11:42:28.668Z,65.70
2022-11-26T11:45:03.564Z,59.40
2022-11-26T11:47:39.148Z,58.80
2022-11-26T11:50:22.811Z,63.20
2022-11-26T11:53:06.867Z,57.50
2022-11-26T11:56:00.940Z,55.70
2022-11-26T11:59:04.066Z,56.50
2022-11-26T12:01:49.177Z,52.80
2022-11-26T12:04:28.400Z,55.50
2022-11-26T12:07:38.373Z,56.20
2022-11-26T12:10:18.312Z,60.50
2022-11-26T12:12:53.551Z,56.60
2022-11-26T12:15:29.962Z,53.70
2022-11-26T12:18:08.083Z,57.50
2022-11-26T12:20:46.743Z,56.00
2022-11-26T12:23:33.579Z,51.50
2022-11-26T12:26:13.824Z,54.50
2022-11-26T12:28:52.735Z,54.40
2022-11-26T12:31:35.012Z,55.40
2022-11-26T12:34:14.310Z,56.50
2022-11-26T12:36:53.234Z,62.70
2022-11-26T12:39:34.067Z,52.40
2022-11-26T12:42:13.456Z,55.20
2022-11-26T12:44:48.546Z,56.60
2022-11-26T12:47:25.554Z,51.50
2022-11-26T12:50:07.231Z,53.40
2022-11-26T12:52:43.512Z,56.70
2022-11-26T12:55:24.590Z,58.10
2022-11-26T12:58:02.034Z,55.60
2022-11-26T13:00:36.756Z,59.70
2022-11-26T13:03:18.278Z,51.30
2022-11-26T13:05:58.584Z,59.50
2022-11-26T13:08:43.194Z,60.00
2022-11-26T13:11:33.720Z,60.30
2022-11-26T13:14:11.112Z,45.20
2022-11-26T13:16:52.516Z,49.00
2022-11-26T13:19:34.314Z,53.60
2022-11-26T13:22:31.336Z,62.30
2022-11-26T13:25:27.246Z,53.20
2022-11-26T13:28:07.594Z,53.10
2022-11-26T13:30:52.821Z,190.10
2022-11-26T13:33:47.615Z,120.20
2022-11-26T13:36:42.568Z,108.90
2022-11-26T13:39:30.838Z,67.60
2022-11-26T13:42:13.922Z,65.20
2022-11-26T13:45:17.384Z,56.00
2022-11-26T13:47:52.441Z,61.90
2022-11-26T13:50:31.505Z,57.90
2022-11-26T13:53:07.796Z,59.90
2022-11-26T13:55:45.926Z,61.60
2022-11-26T13:58:25.022Z,79.40
2022-11-26T14:01:30.553Z,66.20
2022-11-26T14:04:06.751Z,58.10
2022-11-26T14:06:39.535Z,82.40
2022-11-26T14:09:54.439Z,79.30
2022-11-26T14:13:07.951Z,47.10
2022-11-26T14:15:59.760Z,47.90
2022-11-26T14:18:59.341Z,49.90
2022-11-26T14:21:33.021Z,52.00
2022-11-26T14:24:06.949Z,49.60
2022-11-26T14:26:42.230Z,47.80
2022-11-26T14:29:17.639Z,53.60
2022-11-26T14:31:54.358Z,51.40
2022-11-26T14:34:30.731Z,49.20
2022-11-26T14:37:04.086Z,55.00
2022-11-26T14:39:36.522Z,57.60
2022-11-26T14:42:13.627Z,71.30
2022-11-26T14:44:47.507Z,70.60
2022-11-26T14:47:22.354Z,70.30
2022-11-26T14:49:57.040Z,71.90
2022-11-26T14:52:30.597Z,85.00
2022-11-26T14:55:07.181Z,53.60
2022-11-26T14:57:45.545Z,167.40
2022-11-26T15:00:26.808Z,187.20
2022-11-26T15:03:00.537Z,72.60
2022-11-26T15:05:40.723Z,52.70
2022-11-26T15:08:20.253Z,61.60
2022-11-26T15:10:56.826Z,60.50
2022-11-26T15:13:32.008Z,91.90
2022-11-26T15:16:26.571Z,81.20
2022-11-26T15:19:02.001Z,60.70
2022-11-26T15:21:41.258Z,67.10
2022-11-26T15:24:14.997Z,60.20
2022-11-26T15:26:49.408Z,52.90
2022-11-26T15:29:32.967Z,50.00
2022-11-26T15:32:07.340Z,50.80
2022-11-26T15:34:44.638Z,50.10
2022-11-26T15:37:18.581Z,60.90
2022-11-26T15:39:50.502Z,61.50
2022-11-26T15:42:30.582Z,61.30
2022-11-26T15:45:03.489Z,50.60
2022-11-26T15:47:35.440Z,38.60
2022-11-26T15:50:22.424Z,35.40
2022-11-26T15:53:06.527Z,32.60
2022-11-26T15:55:41.509Z,36.90
2022-11-26T15:58:17.816Z,43.70
2022-11-26T16:00:54.488Z,43.30
2022-11-26T16:03:45.472Z,38.30
2022-11-26T16:06:31.625Z,31.30
2022-11-26T16:09:28.111Z,31.70
2022-11-26T16:12:02.698Z,30.20
2022-11-26T16:14:36.667Z,27.20
2022-11-26T16:17:13.405Z,23.80
2022-11-26T16:19:52.652Z,23.10
2022-11-26T16:22:28.590Z,24.70
2022-11-26T16:25:20.998Z,28.10
2022-11-26T16:28:15.806Z,22.80
2022-11-26T16:30:51.737Z,54.00
2022-11-26T16:33:29.530Z,38.00
2022-11-26T16:36:04.207Z,59.80
2022-11-26T16:38:40.199Z,63.70
2022-11-26T16:41:18.920Z,36.90
2022-11-26T16:43:51.826Z,67.60
2022-11-26T16:46:27.826Z,33.20
2022-11-26T16:49:03.518Z,49.50
2022-11-26T16:51:38.998Z,38.80
2022-11-26T16:54:16.880Z,31.70
2022-11-26T16:56:53.323Z,57.40
2022-11-26T16:59:32.361Z,55.40
2022-11-26T17:02:10.807Z,40.60
2022-11-26T17:04:45.375Z,31.80
2022-11-26T17:07:24.893Z,45.70
2022-11-26T17:09:58.380Z,32.70
2022-11-26T17:12:33.707Z,26.90
2022-11-26T17:15:08.969Z,28.40
2022-11-26T17:17:42.318Z,27.40
2022-11-26T17:20:21.259Z,28.00
2022-11-26T17:22:53.280Z,29.70
2022-11-26T17:25:29.317Z,30.40
2022-11-26T17:28:01.144Z,93.10
2022-11-26T17:30:36.308Z,43.50
2022-11-26T17:33:10.860Z,33.80
2022-11-26T17:35:43.446Z,33.40
2022-11-26T17:38:18.400Z,30.70
2022-11-26T17:40:52.232Z,31.70
2022-11-26T17:43:29.689Z,33.00
2022-11-26T17:46:04.909Z,33.00
2022-11-26T17:48:40.175Z,33.60
2022-11-26T17:51:14.695Z,33.00
2022-11-26T17:53:49.229Z,34.80
2022-11-26T17:56:27.025Z,36.40
2022-11-26T17:59:06.596Z,36.80
2022-11-26T18:01:45.212Z,48.90
2022-11-26T18:04:20.581Z,55.20
2022-11-26T18:06:59.394Z,66.50
2022-11-26T18:09:37.400Z,66.40
2022-11-26T18:12:21.581Z,85.30
2022-11-26T18:14:57.794Z,56.30
2022-11-26T18:17:31.486Z,60.50
2022-11-26T18:20:04.955Z,56.00
2022-11-26T18:22:37.495Z,54.10
2022-11-26T18:25:10.890Z,53.90
2022-11-26T18:27:44.145Z,57.50
2022-11-26T18:30:20.708Z,74.60
2022-11-26T18:32:53.769Z,70.80
2022-11-26T18:35:30.114Z,63.10
2022-11-26T18:38:07.825Z,78.00
2022-11-26T18:40:42.599Z,80.70
2022-11-26T18:43:17.002Z,75.40
2022-11-26T18:45:50.850Z,86.20
2022-11-26T18:48:25.098Z,88.40
2022-11-26T18:51:03.208Z,94.30
2022-11-26T18:53:37.281Z,82.70
2022-11-26T18:56:13.403Z,79.60
2022-11-26T18:58:48.292Z,67.60
2022-11-26T19:01:25.874Z,197.80
2022-11-26T19:04:02.403Z,101.00
2022-11-26T19:06:35.159Z,76.40
2022-11-26T19:09:09.967Z,62.80
2022-11-26T19:11:44.542Z,63.90
2022-11-26T19:14:17.611Z,65.50
2022-11-26T19:16:53.835Z,71.90
2022-11-26T19:19:29.232Z,53.80
2022-11-26T19:22:02.149Z,58.70
2022-11-26T19:24:36.678Z,56.50
2022-11-26T19:27:10.351Z,59.40
2022-11-26T19:29:42.657Z,52.00
2022-11-26T19:32:16.008Z,53.10
2022-11-26T19:34:48.271Z,49.00
2022-11-26T19:37:25.573Z,48.60
2022-11-26T19:39:59.458Z,43.40
2022-11-26T19:42:34.399Z,44.90
2022-11-26T19:45:08.856Z,42.70
2022-11-26T19:47:42.313Z,42.40
2022-11-26T19:50:14.469Z,37.10
2022-11-26T19:52:48.045Z,35.20
2022-11-26T19:55:21.224Z,36.70
2022-11-26T19:57:53.089Z,36.20
2022-11-26T20:00:26.183Z,34.60
2022-11-26T20:03:03.635Z,35.60
2022-11-26T20:05:41.591Z,35.60
2022-11-26T20:08:17.708Z,36.40
2022-11-26T20:10:50.652Z,38.20
2022-11-26T20:13:24.131Z,38.60
2022-11-26T20:15:57.117Z,39.10
2022-11-26T20:18:33.090Z,39.40
2022-11-26T20:21:10.509Z,40.60
2022-11-26T20:23:45.056Z,40.50
2022-11-26T20:26:21.921Z,41.90
2022-11-26T20:28:56.441Z,43.30
2022-11-26T20:31:30.478Z,44.60
2022-11-26T20:34:07.364Z,47.40
2022-11-26T20:36:40.003Z,46.00
2022-11-26T20:39:18.516Z,45.80
2022-11-26T20:41:58.029Z,48.80
2022-11-26T20:44:31.928Z,48.40
2022-11-26T20:47:08.175Z,47.90
2022-11-26T20:49:51.455Z,46.00
2022-11-26T20:52:37.338Z,43.20
2022-11-26T20:55:22.203Z,42.70
2022-11-26T20:58:00.578Z,43.20
2022-11-26T21:00:34.712Z,44.30
2022-11-26T21:03:09.316Z,43.30
2022-11-26T21:05:43.056Z,45.00
2022-11-26T21:08:21.701Z,44.30
2022-11-26T21:10:55.692Z,45.10
2022-11-26T21:13:31.023Z,44.00
2022-11-26T21:16:06.814Z,45.80
2022-11-26T21:18:39.732Z,45.00
2022-11-26T21:21:14.789Z,43.60
2022-11-26T21:23:48.913Z,43.90
2022-11-26T21:26:25.817Z,44.70
2022-11-26T21:29:00.181Z,42.10
2022-11-26T21:31:38.331Z,40.50
2022-11-26T21:34:12.975Z,39.20
2022-11-26T21:36:44.901Z,37.30
2022-11-26T21:39:20.915Z,37.70
2022-11-26T21:41:54.219Z,35.60
2022-11-26T21:44:26.686Z,31.40
2022-11-26T21:46:59.244Z,36.30
2022-11-26T21:49:34.202Z,34.30
2022-11-26T21:52:11.370Z,38.00
2022-11-26T21:54:45.480Z,39.00
2022-11-26T21:57:20.576Z,40.00
2022-11-26T21:59:53.648Z,42.10
2022-11-26T22:02:29.106Z,45.70
2022-11-26T22:05:03.149Z,49.70
2022-11-26T22:07:37.413Z,46.50
2022-11-26T22:10:13.063Z,56.10
2022-11-26T22:12:47.808Z,50.50
2022-11-26T22:15:20.024Z,51.10
2022-11-26T22:17:53.692Z,52.70
2022-11-26T22:20:29.088Z,57.90
2022-11-26T22:23:01.897Z,58.00
2022-11-26T22:25:37.200Z,54.40
2022-11-26T22:28:12.337Z,49.80
2022-11-26T22:30:44.482Z,49.90
2022-11-26T22:33:18.253Z,49.00
2022-11-26T22:35:50.267Z,46.90
2022-11-26T22:38:26.534Z,47.50
2022-11-26T22:41:04.401Z,49.50
2022-11-26T22:43:36.364Z,51.30
2022-11-26T22:46:13.739Z,53.00
2022-11-26T22:48:49.461Z,52.60
2022-11-26T22:51:24.252Z,53.00
2022-11-26T22:53:59.401Z,56.10
2022-11-26T22:56:32.357Z,53.40
2022-11-26T22:59:05.694Z,47.90
2022-11-26T23:01:39.115Z,49.60
2022-11-26T23:04:12.396Z,51.20
2022-11-26T23:06:45.183Z,52.90
2022-11-26T23:09:20.830Z,58.70
2022-11-26T23:11:54.820Z,58.20
2022-11-26T23:14:26.590Z,48.70
2022-11-26T23:17:01.681Z,48.40
2022-11-26T23:19:35.549Z,49.50
2022-11-26T23:22:09.028Z,48.10
2022-11-26T23:24:45.104Z,47.80
2022-11-26T23:27:20.710Z,44.80
2022-11-26T23:29:53.865Z,45.10
2022-11-26T23:32:32.146Z,44.70
2022-11-26T23:35:05.237Z,44.40
2022-11-26T23:37:40.666Z,41.50
2022-11-26T23:40:16.348Z,41.00
2022-11-26T23:42:48.973Z,40.70
2022-11-26T23:45:22.335Z,38.60
2022-11-26T23:47:55.879Z,37.10
2022-11-26T23:50:28.460Z,58.20
2022-11-26T23:53:03.236Z,66.30
2022-11-26T23:55:36.935Z,66.40
2022-11-26T23:58:09.137Z,56.10
